Mäntsälä Airport

EFMN · 新地区, 芬兰

METAR的历史 EFMN · Mäntsälä Airport

下面你可以看到过去几天的METARs。 选择年份以浏览从2007年开始的旧METAR。

2024年5月18日

时间 代码 天气 温度 能见度 天花板 METAR/SPECI
22:20
V
14 °C 10 km+ - 110° 110° 4 kt METAR EFHK 181920Z 11004KT CAVOK 14/04 Q1016 NOSIG
21:50
V
15 °C 10 km+ - 120° 120° 5 kt METAR EFHK 181850Z 12005KT CAVOK 15/04 Q1016 NOSIG
21:20
V
16 °C 10 km+ - 100° 100° 3 kt METAR EFHK 181820Z 10003KT CAVOK 16/04 Q1016 NOSIG
20:50
V
17 °C 10 km+ - 130° 130° 6 kt METAR EFHK 181750Z 13006KT CAVOK 17/04 Q1016 NOSIG
20:20
V
17 °C 10 km+ - 130° 130° 8 kt METAR EFHK 181720Z 13008KT 110V170 CAVOK 17/04 Q1016 NOSIG
19:50
V
18 °C 10 km+ - 130° 130° 8 kt METAR EFHK 181650Z 13008KT 110V170 CAVOK 18/03 Q1016 NOSIG
19:20
V
18 °C 10 km+ - 120° 120° 8 kt METAR EFHK 181620Z 12008KT 090V160 CAVOK 18/00 Q1016 NOSIG
18:50
V
19 °C 10 km+ - 130° 130° 6 kt METAR EFHK 181550Z 13006KT CAVOK 19/02 Q1017 NOSIG
18:20
V
19 °C 10 km+ - 130° 130° 7 kt METAR EFHK 181520Z 13007KT 100V180 CAVOK 19/M01 Q1017 NOSIG
17:50
V
20 °C 10 km+ - 140° 140° 7 kt METAR EFHK 181450Z 14007KT 100V160 CAVOK 20/01 Q1017 NOSIG
17:20
V
20 °C 10 km+ - 130° 130° 7 kt METAR EFHK 181420Z 13007KT 090V190 CAVOK 20/M00 Q1018 NOSIG
16:50
V
20 °C 10 km+ - 150° 150° 7 kt METAR EFHK 181350Z 15007KT 110V190 CAVOK 20/01 Q1018 NOSIG
16:20
V
20 °C 10 km+ - 140° 140° 9 kt METAR EFHK 181320Z 14009KT 110V190 CAVOK 20/M01 Q1018 NOSIG
15:50
V
20 °C 10 km+ - 140° 140° 9 kt METAR EFHK 181250Z 14009KT 100V180 CAVOK 20/01 Q1019 NOSIG
15:20
V
20 °C 10 km+ - 150° 150° 9 kt METAR EFHK 181220Z 15009KT CAVOK 20/01 Q1019 NOSIG
14:50
V
20 °C 10 km+ - 140° 140° 10 kt METAR EFHK 181150Z 14010KT 110V170 CAVOK 20/M01 Q1019 NOSIG
14:20
V
20 °C 10 km+ - 130° 130° 8 kt METAR EFHK 181120Z 13008KT CAVOK 20/M01 Q1019 NOSIG
13:50
V
20 °C 10 km+ - 110° 110° 9 kt METAR EFHK 181050Z 11009KT 090V150 CAVOK 20/M01 Q1020 NOSIG
13:20
V
19 °C 10 km+ - 130° 130° 10 kt METAR EFHK 181020Z 13010KT 090V170 CAVOK 19/M02 Q1020 NOSIG
12:50
V
20 °C 10 km+ - 140° 140° 11 kt METAR EFHK 180950Z 14011KT 100V180 CAVOK 20/M02 Q1020 NOSIG
12:20
V
19 °C 10 km+ - 140° 140° 8 kt METAR EFHK 180920Z 14008KT 100V170 CAVOK 19/M00 Q1020 NOSIG
11:50
V
19 °C 10 km+ - 140° 140° 8 kt METAR EFHK 180850Z 14008KT 110V170 CAVOK 19/01 Q1021 NOSIG
11:20
V
19 °C 10 km+ - 130° 130° 7 kt METAR EFHK 180820Z 13007KT 090V160 CAVOK 19/02 Q1021 NOSIG
10:50
V
18 °C 10 km+ - 140° 140° 8 kt METAR EFHK 180750Z 14008KT CAVOK 18/02 Q1021 NOSIG
10:20
V
18 °C 10 km+ - 140° 140° 8 kt METAR EFHK 180720Z 14008KT CAVOK 18/01 Q1021 NOSIG
09:50
V
18 °C 10 km+ - 110° 110° 7 kt METAR EFHK 180650Z 11007KT 070V170 CAVOK 18/00 Q1021 NOSIG
09:20
V
17 °C 10 km+ - 130° 130° 7 kt METAR EFHK 180620Z 13007KT CAVOK 17/03 Q1021 NOSIG
08:50
V
17 °C 10 km+ - 140° 140° 8 kt METAR EFHK 180550Z 14008KT CAVOK 17/04 Q1021 NOSIG
08:20
V
16 °C 10 km+ - 110° 110° 6 kt METAR EFHK 180520Z 11006KT 090V160 CAVOK 16/04 Q1021 NOSIG
07:50
V
15 °C 10 km+ - 110° 110° 5 kt METAR EFHK 180450Z 11005KT 090V150 CAVOK 15/05 Q1021 NOSIG
07:20
V
14 °C 10 km+ - 110° 110° 4 kt METAR EFHK 180420Z 11004KT CAVOK 14/05 Q1021 NOSIG
06:50
V
13 °C 10 km+ - 100° 100° 4 kt METAR EFHK 180350Z 10004KT 070V160 CAVOK 13/05 Q1021 NOSIG
06:20
V
11 °C 10 km+ - 070° 070° 4 kt METAR EFHK 180320Z 07004KT 040V110 CAVOK 11/06 Q1021 NOSIG
05:50
V
9 °C 10 km+ - 080° 080° 3 kt METAR EFHK 180250Z 08003KT CAVOK 09/05 Q1021 NOSIG
05:20
V
7 °C 10 km+ - 090° 090° 4 kt METAR EFHK 180220Z 09004KT CAVOK 07/05 Q1021 NOSIG
04:50
V
6 °C 10 km+ - 100° 100° 4 kt METAR EFHK 180150Z 10004KT 070V140 CAVOK 06/05 Q1021 NOSIG
04:20
V
6 °C 10 km+ - 090° 090° 3 kt METAR EFHK 180120Z 09003KT CAVOK 06/05 Q1021 NOSIG
03:50
V
6 °C 10 km+ - 070° 070° 2 kt METAR EFHK 180050Z 07002KT CAVOK 06/05 Q1022 NOSIG
03:20
V
7 °C 10 km+ - 060° 060° 3 kt METAR EFHK 180020Z 06003KT CAVOK 07/05 Q1022 NOSIG
02:50
V
8 °C 10 km+ - 070° 070° 3 kt METAR EFHK 172350Z 07003KT 050V120 CAVOK 08/06 Q1022 NOSIG
02:20
V
7 °C 10 km+ - Var Var 2 kt METAR EFHK 172320Z VRB02KT CAVOK 07/06 Q1022 NOSIG
01:50
V
9 °C 10 km+ - 070° 070° 3 kt METAR EFHK 172250Z 07003KT CAVOK 09/07 Q1022 NOSIG
01:20
V
8 °C 10 km+ - 360° 360° 0 kt METAR EFHK 172220Z 00000KT CAVOK 08/06 Q1021 NOSIG
00:50
V
9 °C 10 km+ - Var Var 2 kt METAR EFHK 172150Z VRB02KT CAVOK 09/06 Q1021 NOSIG
00:20
V
9 °C 10 km+ - 100° 100° 3 kt METAR EFHK 172120Z 10003KT 070V130 CAVOK 09/07 Q1021 NOSIG

2024年5月17日

时间 代码 天气 温度 能见度 天花板 METAR/SPECI
23:50
V
10 °C 10 km+ - 100° 100° 3 kt METAR EFHK 172050Z 10003KT 070V130 CAVOK 10/07 Q1021 NOSIG
23:20
V
11 °C 10 km+ - 110° 110° 4 kt METAR EFHK 172020Z 11004KT 070V140 CAVOK 11/06 Q1021 NOSIG
22:50
V
12 °C 10 km+ - 100° 100° 3 kt METAR EFHK 171950Z 10003KT 060V130 CAVOK 12/06 Q1021 NOSIG
22:20
V
15 °C 10 km+ - 130° 130° 6 kt METAR EFHK 171920Z 13006KT CAVOK 15/06 Q1021 NOSIG
21:50
V
16 °C 10 km+ - 130° 130° 6 kt METAR EFHK 171850Z 13006KT CAVOK 16/05 Q1021 NOSIG
21:20
V
17 °C 10 km+ - 140° 140° 6 kt METAR EFHK 171820Z 14006KT CAVOK 17/06 Q1021 NOSIG
20:50
V
18 °C 10 km+ - 160° 160° 8 kt METAR EFHK 171750Z 16008KT CAVOK 18/04 Q1021 NOSIG
20:20
V
19 °C 10 km+ - 170° 170° 8 kt METAR EFHK 171720Z 17008KT CAVOK 19/05 Q1021 NOSIG
19:50
V
19 °C 10 km+ - 180° 180° 8 kt METAR EFHK 171650Z 18008KT CAVOK 19/06 Q1021 NOSIG
19:20
V
20 °C 10 km+ - 180° 180° 7 kt METAR EFHK 171620Z 18007KT 130V200 CAVOK 20/06 Q1021 NOSIG
18:50
V
20 °C 10 km+ - 180° 180° 8 kt METAR EFHK 171550Z 18008KT CAVOK 20/07 Q1021 NOSIG
18:20
V
20 °C 10 km+ - 150° 150° 9 kt METAR EFHK 171520Z 15009KT 120V180 CAVOK 20/06 Q1021 NOSIG
17:50
V
20 °C 10 km+ - 140° 140° 10 kt METAR EFHK 171450Z 14010KT 110V170 CAVOK 20/06 Q1021 NOSIG
17:20
V
20 °C 10 km+ - 140° 140° 12 kt METAR EFHK 171420Z 14012KT 110V180 CAVOK 20/06 Q1021 NOSIG
16:50
V
21 °C 10 km+ - 170° 170° 9 kt METAR EFHK 171350Z 17009KT 130V200 CAVOK 21/07 Q1022 NOSIG
16:20
V
21 °C 10 km+ - 170° 170° 10 kt METAR EFHK 171320Z 17010KT 140V200 CAVOK 21/08 Q1022 NOSIG
15:50
V
22 °C 10 km+ - 180° 180° 11 kt METAR EFHK 171250Z 18011KT CAVOK 22/08 Q1022 NOSIG
15:20
V
21 °C 10 km+ - 170° 170° 11 kt METAR EFHK 171220Z 17011KT CAVOK 21/09 Q1022 NOSIG
14:50
V
21 °C 10 km+ - 160° 160° 12 kt METAR EFHK 171150Z 16012KT CAVOK 21/09 Q1022 NOSIG
14:20
V
22 °C 10 km+ - 150° 150° 12 kt METAR EFHK 171120Z 15012KT CAVOK 22/09 Q1022 NOSIG
13:50
V
22 °C 10 km+ - 170° 170° 10 kt METAR EFHK 171050Z 17010KT CAVOK 22/10 Q1022 NOSIG
13:20
V
22 °C 10 km+ - 170° 170° 7 kt METAR EFHK 171020Z 17007KT 140V240 CAVOK 22/10 Q1022 NOSIG
12:50
V
23 °C 10 km+ - 040° 040° 5 kt METAR EFHK 170950Z 04005KT 320V120 CAVOK 23/09 Q1022 BECMG 15010KT
12:20
V
22 °C 10 km+ - 030° 030° 5 kt METAR EFHK 170920Z 03005KT 340V100 CAVOK 22/08 Q1022 BECMG 15010KT
11:50
V
22 °C 10 km+ - 340° 340° 5 kt METAR EFHK 170850Z 34005KT 280V060 CAVOK 22/07 Q1022 NOSIG
11:20
V
22 °C 10 km+ - Var Var 4 kt METAR EFHK 170820Z VRB04KT CAVOK 22/08 Q1022 NOSIG
10:50
V
22 °C 10 km+ - 330° 330° 4 kt METAR EFHK 170750Z 33004KT 280V020 CAVOK 22/08 Q1022 NOSIG
10:20
V
22 °C 10 km+ - 340° 340° 4 kt METAR EFHK 170720Z 34004KT 300V020 CAVOK 22/10 Q1022 NOSIG
09:50
V
20 °C 10 km+ - Var Var 3 kt METAR EFHK 170650Z VRB03KT CAVOK 20/09 Q1022 NOSIG
09:20
V
19 °C 10 km+ - 040° 040° 3 kt METAR EFHK 170620Z 04003KT 330V120 CAVOK 19/09 Q1022 NOSIG
08:50
V
19 °C 10 km+ - 010° 010° 3 kt METAR EFHK 170550Z 01003KT 330V040 CAVOK 19/09 Q1022 NOSIG
08:20
V
17 °C 10 km+ - 360° 360° 3 kt METAR EFHK 170520Z 36003KT 310V040 CAVOK 17/08 Q1022 NOSIG
07:50
V
16 °C 10 km+ - 340° 340° 4 kt METAR EFHK 170450Z 34004KT CAVOK 16/08 Q1022 NOSIG
07:20
V
15 °C 10 km+ - 340° 340° 7 kt METAR EFHK 170420Z 34007KT CAVOK 15/08 Q1022 NOSIG
06:50
V
14 °C 10 km+ - 320° 320° 7 kt METAR EFHK 170350Z 32007KT CAVOK 14/07 Q1022 NOSIG
06:20
V
13 °C 10 km+ - 310° 310° 5 kt METAR EFHK 170320Z 31005KT CAVOK 13/07 Q1022 NOSIG
05:50
V
12 °C 10 km+ - 300° 300° 6 kt METAR EFHK 170250Z 30006KT CAVOK 12/07 Q1022 NOSIG
05:20
V
11 °C 10 km+ - 310° 310° 7 kt METAR EFHK 170220Z 31007KT CAVOK 11/07 Q1022 NOSIG
04:50
V
11 °C 10 km+ - 300° 300° 7 kt METAR EFHK 170150Z 30007KT CAVOK 11/07 Q1022 NOSIG
04:20
V
11 °C 10 km+ - 290° 290° 6 kt METAR EFHK 170120Z 29006KT CAVOK 11/07 Q1022 NOSIG
03:50
V
13 °C 10 km+ - 290° 290° 6 kt METAR EFHK 170050Z 29006KT CAVOK 13/07 Q1022 NOSIG
03:20
V
13 °C 10 km+ - 290° 290° 8 kt METAR EFHK 170020Z 29008KT CAVOK 13/07 Q1022 NOSIG
02:50
V
13 °C 10 km+ - 290° 290° 8 kt METAR EFHK 162350Z 29008KT CAVOK 13/07 Q1022 NOSIG
02:20
V
14 °C 10 km+ - 280° 280° 7 kt METAR EFHK 162320Z 28007KT CAVOK 14/07 Q1022 NOSIG
01:50
V
14 °C 10 km+ - 280° 280° 6 kt METAR EFHK 162250Z 28006KT CAVOK 14/08 Q1022 NOSIG
01:20
V
14 °C 10 km+ - 280° 280° 6 kt METAR EFHK 162220Z 28006KT CAVOK 14/08 Q1022 NOSIG
00:50
V
16 °C 10 km+ - 270° 270° 6 kt METAR EFHK 162150Z 27006KT CAVOK 16/07 Q1022 NOSIG
00:20
V
18 °C 10 km+ - 280° 280° 8 kt METAR EFHK 162120Z 28008KT CAVOK 18/07 Q1022 NOSIG

2024年5月16日

时间 代码 天气 温度 能见度 天花板 METAR/SPECI
23:50
V
18 °C 10 km+ - 290° 290° 9 kt METAR EFHK 162050Z 29009KT CAVOK 18/07 Q1022 NOSIG
23:20
V
18 °C 10 km+ - 290° 290° 9 kt METAR EFHK 162020Z 29009KT CAVOK 18/07 Q1021 NOSIG
22:50
V
19 °C 10 km+ - 290° 290° 7 kt METAR EFHK 161950Z 29007KT CAVOK 19/08 Q1021 NOSIG
22:20
V
19 °C 10 km+ - 280° 280° 6 kt METAR EFHK 161920Z 28006KT CAVOK 19/08 Q1021 NOSIG
21:50
V
20 °C 10 km+ - 270° 270° 8 kt METAR EFHK 161850Z 27008KT CAVOK 20/08 Q1021 NOSIG
21:20
V
21 °C 10 km+ - 260° 260° 8 kt METAR EFHK 161820Z 26008KT CAVOK 21/08 Q1021 NOSIG
20:50
V
22 °C 10 km+ - 270° 270° 10 kt METAR EFHK 161750Z 27010KT CAVOK 22/08 Q1020 NOSIG
20:20
V
23 °C 10 km+ - 260° 260° 13 kt METAR EFHK 161720Z 26013KT CAVOK 23/08 Q1020 NOSIG
19:50
V
24 °C 10 km+ - 260° 260° 11 kt METAR EFHK 161650Z 26011KT CAVOK 24/08 Q1020 NOSIG
19:20
V
25 °C 10 km+ - 260° 260° 13 kt METAR EFHK 161620Z 26013KT 230V290 CAVOK 25/08 Q1020 NOSIG
18:50
V
25 °C 10 km+ - 260° 260° 14 kt METAR EFHK 161550Z 26014KT CAVOK 25/08 Q1020 NOSIG
18:20
V
25 °C 10 km+ - 260° 260° 11 kt METAR EFHK 161520Z 26011KT 220V290 CAVOK 25/08 Q1020 NOSIG
17:50
V
26 °C 10 km+ - 270° 270° 12 kt METAR EFHK 161450Z 27012KT CAVOK 26/07 Q1020 NOSIG
17:20
V
26 °C 10 km+ - 270° 270° 11 kt METAR EFHK 161420Z 27011KT 240V310 CAVOK 26/08 Q1021 NOSIG
16:50
V
26 °C 10 km+ - 250° 250° 10 - 21 kt METAR EFHK 161350Z 25010G21KT CAVOK 26/07 Q1021 NOSIG
16:20
V
26 °C 10 km+ - 260° 260° 13 kt METAR EFHK 161320Z 26013KT CAVOK 26/07 Q1021 NOSIG
15:50
V
25 °C 10 km+ - 270° 270° 10 kt METAR EFHK 161250Z 27010KT 240V300 CAVOK 25/06 Q1021 NOSIG
15:20
V
25 °C 10 km+ - 280° 280° 11 kt METAR EFHK 161220Z 28011KT 9999 FEW024 25/06 Q1021 NOSIG
14:50
V
25 °C 10 km+ - 280° 280° 11 kt METAR EFHK 161150Z 28011KT 9999 FEW024 25/05 Q1021 NOSIG
14:20
V
24 °C 10 km+ - 290° 290° 12 kt METAR EFHK 161120Z 29012KT 270V330 9999 FEW030 24/04 Q1022 NOSIG
13:50
V
24 °C 10 km+ - 280° 280° 10 kt METAR EFHK 161050Z 28010KT 250V320 CAVOK 24/06 Q1022 NOSIG
13:20
V
24 °C 10 km+ - 270° 270° 10 kt METAR EFHK 161020Z 27010KT 230V310 CAVOK 24/05 Q1022 NOSIG
12:50
V
24 °C 10 km+ - 260° 260° 11 kt METAR EFHK 160950Z 26011KT 220V290 CAVOK 24/05 Q1022 NOSIG
12:20
V
23 °C 10 km+ - 250° 250° 11 kt METAR EFHK 160920Z 25011KT 210V280 CAVOK 23/06 Q1022 NOSIG
11:50
V
23 °C 10 km+ - 270° 270° 11 kt METAR EFHK 160850Z 27011KT 240V300 CAVOK 23/05 Q1022 NOSIG
11:20
V
22 °C 10 km+ - 280° 280° 13 kt METAR EFHK 160820Z 28013KT CAVOK 22/05 Q1022 NOSIG
10:50
V
21 °C 10 km+ - 260° 260° 11 kt METAR EFHK 160750Z 26011KT CAVOK 21/05 Q1023 NOSIG
10:20
V
20 °C 10 km+ - 290° 290° 10 kt METAR EFHK 160720Z 29010KT 240V300 CAVOK 20/05 Q1023 NOSIG
09:50
V
20 °C 10 km+ - 260° 260° 12 kt METAR EFHK 160650Z 26012KT 240V300 CAVOK 20/04 Q1023 NOSIG
09:20
V
19 °C 10 km+ - 270° 270° 10 kt METAR EFHK 160620Z 27010KT CAVOK 19/05 Q1023 NOSIG
08:50
V
18 °C 10 km+ - 270° 270° 9 kt METAR EFHK 160550Z 27009KT 240V300 CAVOK 18/06 Q1023 NOSIG
报告变更